createdAt,value
2018-10-18T00:00:37.483Z,10.20
2018-10-18T00:03:06.118Z,11.15
2018-10-18T00:05:34.646Z,10.25
2018-10-18T00:08:03.605Z,11.22
2018-10-18T00:10:32.171Z,12.30
2018-10-18T00:13:00.707Z,10.30
2018-10-18T00:15:29.242Z,11.48
2018-10-18T00:17:57.830Z,11.38
2018-10-18T00:20:26.499Z,11.15
2018-10-18T00:22:55.044Z,12.93
2018-10-18T00:25:23.637Z,11.90
2018-10-18T00:27:52.191Z,11.25
2018-10-18T00:30:20.784Z,11.70
2018-10-18T00:32:49.735Z,11.78
2018-10-18T00:35:18.735Z,14.33
2018-10-18T00:37:47.295Z,13.62
2018-10-18T00:40:16.207Z,11.75
2018-10-18T00:42:44.774Z,15.48
2018-10-18T00:45:13.347Z,12.33
2018-10-18T00:47:41.899Z,14.15
2018-10-18T00:50:11.624Z,12.35
2018-10-18T00:52:40.563Z,12.58
2018-10-18T00:55:10.366Z,12.90
2018-10-18T00:57:39.260Z,13.35
2018-10-18T01:00:08.869Z,12.80
2018-10-18T01:02:37.451Z,13.15
2018-10-18T01:05:06.063Z,13.95
2018-10-18T01:07:34.645Z,12.63
2018-10-18T01:10:03.265Z,13.40
2018-10-18T01:12:31.928Z,12.00
2018-10-18T01:15:00.408Z,13.05
2018-10-18T01:17:29.075Z,13.78
2018-10-18T01:19:57.655Z,14.40
2018-10-18T01:22:26.198Z,14.10
2018-10-18T01:24:54.751Z,14.55
2018-10-18T01:27:23.293Z,14.25
2018-10-18T01:29:51.917Z,14.13
2018-10-18T01:32:20.453Z,13.60
2018-10-18T01:34:48.983Z,14.90
2018-10-18T01:37:17.515Z,12.60
2018-10-18T01:39:46.075Z,14.20
2018-10-18T01:42:15.016Z,13.40
2018-10-18T01:44:43.559Z,14.47
2018-10-18T01:47:12.114Z,15.13
2018-10-18T01:49:40.670Z,15.18
2018-10-18T01:52:09.221Z,14.78
2018-10-18T01:54:37.771Z,14.65
2018-10-18T01:57:07.207Z,15.95
2018-10-18T01:59:35.739Z,15.65
2018-10-18T02:02:04.433Z,15.65
2018-10-18T02:04:33.575Z,15.60
2018-10-18T02:07:02.128Z,16.10
2018-10-18T02:09:30.659Z,16.93
2018-10-18T02:11:59.666Z,17.65
2018-10-18T02:14:28.221Z,15.60
2018-10-18T02:16:56.777Z,17.42
2018-10-18T02:19:25.699Z,17.25
2018-10-18T02:21:54.247Z,17.40
2018-10-18T02:24:22.879Z,14.33
2018-10-18T02:26:51.751Z,16.32
2018-10-18T02:29:20.411Z,15.78
2018-10-18T02:31:48.953Z,16.37
2018-10-18T02:34:17.498Z,15.43
2018-10-18T02:36:46.047Z,16.15
2018-10-18T02:39:14.709Z,16.17
2018-10-18T02:41:43.282Z,15.20
2018-10-18T02:44:11.832Z,16.07
2018-10-18T02:46:40.418Z,15.23
2018-10-18T02:49:08.970Z,15.00
2018-10-18T02:51:37.810Z,14.98
2018-10-18T02:54:06.425Z,14.03
2018-10-18T02:56:35.434Z,14.85
2018-10-18T02:59:04.458Z,13.48
2018-10-18T03:01:33.018Z,14.38
2018-10-18T03:04:01.620Z,13.38
2018-10-18T03:06:30.182Z,13.65
2018-10-18T03:08:58.746Z,13.93
2018-10-18T03:11:27.285Z,14.75
2018-10-18T03:13:55.827Z,14.35
2018-10-18T03:16:24.651Z,15.30
2018-10-18T03:18:53.200Z,15.15
2018-10-18T03:21:21.751Z,15.05
2018-10-18T03:23:50.711Z,15.35
2018-10-18T03:26:19.269Z,14.75
2018-10-18T03:28:48.083Z,15.32
2018-10-18T03:31:16.647Z,16.10
2018-10-18T03:33:45.206Z,14.23
2018-10-18T03:36:13.829Z,15.30
2018-10-18T03:38:42.684Z,14.25
2018-10-18T03:41:11.679Z,13.70
2018-10-18T03:43:40.228Z,14.00
2018-10-18T03:46:08.759Z,13.35
2018-10-18T03:48:37.300Z,12.75
2018-10-18T03:51:05.866Z,13.00
2018-10-18T03:53:34.940Z,13.15
2018-10-18T03:56:03.487Z,12.75
2018-10-18T03:58:32.027Z,13.83
2018-10-18T04:01:00.564Z,13.43
2018-10-18T04:03:29.103Z,11.35
2018-10-18T04:05:57.965Z,14.47
2018-10-18T04:08:26.535Z,13.85
2018-10-18T04:10:55.087Z,11.75
2018-10-18T04:13:23.725Z,11.48
2018-10-18T04:15:52.203Z,11.20
2018-10-18T04:18:20.988Z,11.93
2018-10-18T04:20:49.547Z,10.95
2018-10-18T04:23:23.991Z,9.93
2018-10-18T04:25:53.259Z,10.00
2018-10-18T04:28:21.803Z,9.33
2018-10-18T04:30:50.371Z,10.78
2018-10-18T04:33:18.915Z,10.20
2018-10-18T04:35:47.475Z,9.75
2018-10-18T04:38:16.015Z,9.80
2018-10-18T04:40:44.581Z,9.55
2018-10-18T04:43:13.342Z,10.80
2018-10-18T04:45:42.240Z,8.25
2018-10-18T04:48:11.443Z,9.35
2018-10-18T04:50:40.518Z,8.35
2018-10-18T04:53:09.111Z,8.53
2018-10-18T04:55:37.690Z,9.45
2018-10-18T04:58:06.578Z,9.70
2018-10-18T05:00:35.207Z,9.43
2018-10-18T05:03:03.771Z,8.65
2018-10-18T05:05:58.126Z,8.80
2018-10-18T05:08:27.534Z,9.08
2018-10-18T05:10:56.465Z,10.43
2018-10-18T05:13:25.227Z,9.95
2018-10-18T05:15:53.907Z,9.63
2018-10-18T05:18:23.434Z,9.55
2018-10-18T05:20:52.119Z,8.65
2018-10-18T05:23:20.831Z,8.78
2018-10-18T05:25:50.159Z,8.70
2018-10-18T05:28:19.082Z,8.58
2018-10-18T05:30:47.661Z,9.18
2018-10-18T05:33:16.203Z,8.98
2018-10-18T05:35:44.809Z,8.98
2018-10-18T05:38:13.740Z,9.00
2018-10-18T05:40:42.330Z,9.00
2018-10-18T05:43:10.912Z,8.38
2018-10-18T05:45:39.458Z,8.00
2018-10-18T05:48:08.463Z,9.58
2018-10-18T05:50:37.075Z,9.78
2018-10-18T05:53:06.040Z,8.68
2018-10-18T05:56:01.518Z,8.90
2018-10-18T05:58:36.213Z,9.18
2018-10-18T06:01:27.563Z,8.95
2018-10-18T06:04:14.749Z,7.45
2018-10-18T06:07:01.755Z,8.98
2018-10-18T06:09:44.583Z,8.60
2018-10-18T06:12:26.775Z,9.43
2018-10-18T06:15:11.046Z,9.43
2018-10-18T06:17:52.415Z,9.13
2018-10-18T06:20:38.474Z,9.03
2018-10-18T06:23:24.676Z,7.08
2018-10-18T06:26:12.238Z,8.60
2018-10-18T06:28:54.821Z,8.48
2018-10-18T06:31:44.113Z,8.65
2018-10-18T06:34:18.387Z,9.30
2018-10-18T06:36:55.693Z,8.93
2018-10-18T06:39:45.485Z,9.40
2018-10-18T06:42:34.237Z,9.25
2018-10-18T06:45:20.030Z,8.85
2018-10-18T06:48:06.914Z,8.80
2018-10-18T06:50:57.330Z,8.50
2018-10-18T06:53:25.935Z,10.40
2018-10-18T06:55:55.119Z,7.08
2018-10-18T06:59:53.179Z,6.85
2018-10-18T07:02:21.740Z,7.70
2018-10-18T07:04:50.648Z,7.10
2018-10-18T07:07:19.245Z,6.83
2018-10-18T07:09:47.827Z,8.90
2018-10-18T07:12:16.933Z,7.22
2018-10-18T07:14:45.761Z,8.08
2018-10-18T07:17:14.429Z,6.55
2018-10-18T07:19:43.067Z,9.28
2018-10-18T07:22:11.723Z,7.37
2018-10-18T07:24:40.348Z,8.25
2018-10-18T07:27:09.475Z,8.68
2018-10-18T07:29:38.051Z,6.20
2018-10-18T07:32:07.275Z,6.25
2018-10-18T07:34:36.272Z,8.45
2018-10-18T07:37:05.764Z,7.55
2018-10-18T07:39:34.763Z,7.35
2018-10-18T07:42:04.668Z,7.55
2018-10-18T07:44:33.304Z,7.10
2018-10-18T07:47:02.055Z,8.58
2018-10-18T07:49:30.599Z,6.80
2018-10-18T07:51:59.510Z,8.28
2018-10-18T07:54:28.080Z,7.72
2018-10-18T07:56:57.071Z,7.15
2018-10-18T07:59:26.486Z,7.10
2018-10-18T08:01:55.066Z,7.75
2018-10-18T08:04:23.815Z,7.40
2018-10-18T08:06:52.686Z,7.17
2018-10-18T08:09:21.576Z,7.22
2018-10-18T08:11:50.178Z,7.83
2018-10-18T08:14:18.808Z,7.45
2018-10-18T08:16:48.039Z,7.45
2018-10-18T08:19:16.652Z,8.73
2018-10-18T08:21:45.231Z,7.28
2018-10-18T08:24:14.887Z,6.80
2018-10-18T08:26:44.048Z,7.30
2018-10-18T08:29:12.869Z,6.47
2018-10-18T08:31:41.555Z,8.23
2018-10-18T08:34:10.072Z,5.95
2018-10-18T08:36:41.865Z,5.80
2018-10-18T08:39:11.511Z,7.42
2018-10-18T08:41:46.922Z,5.72
2018-10-18T08:44:15.869Z,5.78
2018-10-18T08:46:47.540Z,6.42
2018-10-18T08:49:15.864Z,6.40
2018-10-18T08:52:02.651Z,6.28
2018-10-18T08:54:43.506Z,5.95
2018-10-18T08:57:11.742Z,5.85
2018-10-18T08:59:40.640Z,6.28
2018-10-18T09:02:08.999Z,6.00
2018-10-18T09:04:37.259Z,5.95
2018-10-18T09:07:05.546Z,5.97
2018-10-18T09:09:33.778Z,5.72
2018-10-18T09:12:02.026Z,5.40
2018-10-18T09:14:30.362Z,4.87
2018-10-18T09:16:58.643Z,4.97
2018-10-18T09:19:26.932Z,3.70
2018-10-18T09:21:56.054Z,4.53
2018-10-18T09:24:27.928Z,4.22
2018-10-18T09:26:57.910Z,4.22
2018-10-18T09:29:26.538Z,3.65
2018-10-18T09:31:54.758Z,5.03
2018-10-18T09:34:23.022Z,4.42
2018-10-18T09:36:51.266Z,4.70
2018-10-18T09:39:19.498Z,5.35
2018-10-18T09:41:47.993Z,3.92
2018-10-18T09:44:16.640Z,4.20
2018-10-18T09:46:45.254Z,4.87
2018-10-18T09:49:13.514Z,4.75
2018-10-18T09:51:41.819Z,4.35
2018-10-18T09:54:10.494Z,4.70
2018-10-18T09:56:38.730Z,4.72
2018-10-18T09:59:07.458Z,4.85
2018-10-18T10:01:41.110Z,4.95
2018-10-18T10:04:09.747Z,3.95
2018-10-18T10:06:37.967Z,3.95
2018-10-18T10:09:07.300Z,3.17
2018-10-18T10:11:35.916Z,4.33
2018-10-18T10:14:04.162Z,3.75
2018-10-18T10:16:32.434Z,3.47
2018-10-18T10:19:00.717Z,3.60
2018-10-18T10:21:28.935Z,3.70
2018-10-18T10:23:57.190Z,3.20
2018-10-18T10:26:25.493Z,3.27
2018-10-18T10:28:54.103Z,3.40
2018-10-18T10:31:22.684Z,3.25
2018-10-18T10:33:51.616Z,3.22
2018-10-18T10:36:20.223Z,3.80
2018-10-18T10:38:48.810Z,3.80
2018-10-18T10:41:17.937Z,3.40
2018-10-18T10:43:47.596Z,3.25
2018-10-18T10:46:16.326Z,3.47
2018-10-18T10:48:44.554Z,3.70
2018-10-18T10:51:13.193Z,2.58
2018-10-18T10:53:42.328Z,3.62
2018-10-18T10:56:11.083Z,3.35
2018-10-18T10:58:39.523Z,3.15
2018-10-18T11:01:16.259Z,2.40
2018-10-18T11:03:45.244Z,2.33
2018-10-18T11:06:14.408Z,2.58
2018-10-18T11:08:43.086Z,2.70
2018-10-18T11:11:12.625Z,2.33
2018-10-18T11:13:41.258Z,2.77
2018-10-18T11:16:09.948Z,3.30
2018-10-18T11:18:39.121Z,2.60
2018-10-18T11:21:09.526Z,2.50
2018-10-18T11:23:38.061Z,1.40
2018-10-18T11:26:06.781Z,1.98
2018-10-18T11:28:35.551Z,1.98
2018-10-18T11:31:04.310Z,2.65
2018-10-18T11:33:32.908Z,2.02
2018-10-18T11:36:01.573Z,2.40
2018-10-18T11:38:36.843Z,2.08
2018-10-18T11:41:05.514Z,1.90
2018-10-18T11:43:36.472Z,1.62
2018-10-18T11:46:05.843Z,1.67
2018-10-18T11:48:34.720Z,2.17
2018-10-18T11:51:03.317Z,1.80
2018-10-18T11:53:31.902Z,1.80
2018-10-18T11:56:00.584Z,2.00
2018-10-18T11:58:29.163Z,1.70
2018-10-18T12:00:58.466Z,1.80
2018-10-18T12:03:27.062Z,1.80
2018-10-18T12:05:55.627Z,2.00
2018-10-18T12:08:24.205Z,1.50
2018-10-18T12:10:52.838Z,1.75
2018-10-18T12:13:21.690Z,1.67
2018-10-18T12:15:50.264Z,2.35
2018-10-18T12:18:18.892Z,1.40
2018-10-18T12:20:47.467Z,1.37
2018-10-18T12:23:16.152Z,1.72
2018-10-18T12:25:45.003Z,1.47
2018-10-18T12:28:13.607Z,1.45
2018-10-18T12:30:42.223Z,1.72
2018-10-18T12:33:11.219Z,1.60
2018-10-18T12:35:39.797Z,1.32
2018-10-18T12:38:08.905Z,1.45
2018-10-18T12:40:37.593Z,1.40
2018-10-18T12:43:06.075Z,1.77
2018-10-18T12:45:34.774Z,1.40
2018-10-18T12:48:03.485Z,1.50
2018-10-18T12:50:32.460Z,1.20
2018-10-18T12:53:01.389Z,1.17
2018-10-18T12:55:30.103Z,1.72
2018-10-18T12:57:58.675Z,1.00
2018-10-18T13:00:27.296Z,1.50
2018-10-18T13:02:55.877Z,1.72
2018-10-18T13:05:24.499Z,1.57
2018-10-18T13:07:53.154Z,1.20
2018-10-18T13:10:21.818Z,1.10
2018-10-18T13:12:50.401Z,1.30
2018-10-18T13:15:19.016Z,1.00
2018-10-18T13:17:47.819Z,1.20
2018-10-18T13:20:16.893Z,1.60
2018-10-18T13:22:45.435Z,1.40
2018-10-18T13:25:14.773Z,1.10
2018-10-18T13:27:43.295Z,0.85
2018-10-18T13:30:12.250Z,0.65
2018-10-18T13:32:41.300Z,0.80
2018-10-18T13:36:39.338Z,1.20
2018-10-18T13:39:09.787Z,1.00
2018-10-18T13:41:38.566Z,0.70
2018-10-18T13:44:07.618Z,1.10
2018-10-18T13:46:36.408Z,1.02
2018-10-18T13:49:05.025Z,0.65
2018-10-18T13:51:33.628Z,1.55
2018-10-18T13:54:01.912Z,0.85
2018-10-18T13:56:30.122Z,0.95
2018-10-18T13:58:58.800Z,0.95
2018-10-18T14:01:27.631Z,0.80
2018-10-18T14:03:55.856Z,1.00
2018-10-18T14:06:24.082Z,0.60
2018-10-18T14:08:52.462Z,0.95
2018-10-18T14:11:20.730Z,1.00
2018-10-18T14:13:49.014Z,0.95
2018-10-18T14:16:17.619Z,1.37
2018-10-18T14:18:46.220Z,0.70
2018-10-18T14:21:15.310Z,1.02
2018-10-18T14:23:43.543Z,0.82
2018-10-18T14:26:12.152Z,0.85
2018-10-18T14:28:41.143Z,0.80
2018-10-18T14:31:09.722Z,0.80
2018-10-18T14:33:38.295Z,1.10
2018-10-18T14:36:07.607Z,0.90
2018-10-18T14:38:36.186Z,0.70
2018-10-18T14:41:04.823Z,0.70
2018-10-18T14:43:33.359Z,0.80
2018-10-18T14:46:01.939Z,1.00
2018-10-18T14:48:31.482Z,0.90
2018-10-18T14:51:00.137Z,0.70
2018-10-18T14:53:28.723Z,1.02
2018-10-18T14:55:57.517Z,0.85
2018-10-18T14:58:27.505Z,1.20
2018-10-18T15:00:56.671Z,1.10
2018-10-18T15:03:25.516Z,1.07
2018-10-18T15:05:54.093Z,1.07
2018-10-18T15:08:22.989Z,0.60
2018-10-18T15:10:51.619Z,0.90
2018-10-18T15:13:20.189Z,0.65
2018-10-18T15:15:48.769Z,0.72
2018-10-18T15:18:17.355Z,0.80
2018-10-18T15:22:15.375Z,0.70
2018-10-18T15:24:44.243Z,0.68
2018-10-18T15:27:13.103Z,0.75
2018-10-18T15:29:41.682Z,0.82
2018-10-18T15:32:10.372Z,0.60
2018-10-18T15:34:39.142Z,0.80
2018-10-18T15:37:07.727Z,0.82
2018-10-18T15:39:36.365Z,0.80
2018-10-18T15:42:05.431Z,0.80
2018-10-18T15:44:34.012Z,0.70
2018-10-18T15:47:02.724Z,0.60
2018-10-18T15:49:31.444Z,1.00
2018-10-18T15:52:00.291Z,0.62
2018-10-18T15:54:28.974Z,0.68
2018-10-18T15:56:57.574Z,0.60
2018-10-18T15:59:26.155Z,0.80
2018-10-18T16:01:54.731Z,1.02
2018-10-18T16:04:23.308Z,0.90
2018-10-18T16:06:51.959Z,0.60
2018-10-18T16:09:20.710Z,1.00
2018-10-18T16:11:49.295Z,0.70
2018-10-18T16:14:18.228Z,0.60
2018-10-18T16:16:46.777Z,1.10
2018-10-18T16:19:15.354Z,1.10
2018-10-18T16:21:44.013Z,1.30
2018-10-18T16:24:12.673Z,0.90
2018-10-18T16:26:41.275Z,0.95
2018-10-18T16:29:09.873Z,0.90
2018-10-18T16:31:38.454Z,0.70
2018-10-18T16:34:07.083Z,0.90
2018-10-18T16:36:35.792Z,1.62
2018-10-18T16:39:06.694Z,1.77
2018-10-18T16:41:35.361Z,2.50
2018-10-18T16:44:03.923Z,3.45
2018-10-18T16:46:33.086Z,2.20
2018-10-18T16:49:01.921Z,2.70
2018-10-18T16:51:30.502Z,2.22
2018-10-18T16:53:59.156Z,2.20
2018-10-18T16:56:27.720Z,2.70
2018-10-18T16:58:56.914Z,1.60
2018-10-18T17:01:25.683Z,2.50
2018-10-18T17:03:54.321Z,1.87
2018-10-18T17:06:23.098Z,1.50
2018-10-18T17:08:51.655Z,1.15
2018-10-18T17:11:20.289Z,1.20
2018-10-18T17:13:49.108Z,1.32
2018-10-18T17:16:17.770Z,2.15
2018-10-18T17:18:46.295Z,4.20
2018-10-18T17:21:15.367Z,3.52
2018-10-18T17:23:43.924Z,1.50
2018-10-18T17:26:12.552Z,1.52
2018-10-18T17:28:41.342Z,1.37
2018-10-18T17:31:10.189Z,1.45
2018-10-18T17:33:38.755Z,1.62
2018-10-18T17:36:07.433Z,2.05
2018-10-18T17:38:35.926Z,2.10
2018-10-18T17:41:05.404Z,2.00
2018-10-18T17:43:33.975Z,2.35
2018-10-18T17:46:02.575Z,1.67
2018-10-18T17:48:34.192Z,1.60
2018-10-18T17:51:02.907Z,2.83
2018-10-18T17:53:31.535Z,2.50
2018-10-18T17:56:02.702Z,2.67
2018-10-18T17:58:31.271Z,2.83
2018-10-18T18:01:08.511Z,2.80
2018-10-18T18:03:37.407Z,2.80
2018-10-18T18:06:06.051Z,2.87
2018-10-18T18:08:34.867Z,3.45
2018-10-18T18:11:03.440Z,2.95
2018-10-18T18:13:32.019Z,3.40
2018-10-18T18:16:00.795Z,3.90
2018-10-18T18:18:29.370Z,3.60
2018-10-18T18:20:57.964Z,3.45
2018-10-18T18:23:26.527Z,3.35
2018-10-18T18:25:55.752Z,3.52
2018-10-18T18:28:24.291Z,3.75
2018-10-18T18:30:52.823Z,3.22
2018-10-18T18:33:22.135Z,3.52
2018-10-18T18:35:50.699Z,3.08
2018-10-18T18:38:19.381Z,2.80
2018-10-18T18:40:47.918Z,2.80
2018-10-18T18:43:16.462Z,3.50
2018-10-18T18:45:45.017Z,2.77
2018-10-18T18:48:13.591Z,3.83
2018-10-18T18:50:43.229Z,2.90
2018-10-18T18:53:14.741Z,2.95
2018-10-18T18:55:43.847Z,3.17
2018-10-18T18:58:12.379Z,3.62
2018-10-18T19:00:40.928Z,3.33
2018-10-18T19:03:09.994Z,3.65
2018-10-18T19:05:39.056Z,3.47
2018-10-18T19:08:11.640Z,3.42
2018-10-18T19:10:44.979Z,3.15
2018-10-18T19:13:14.379Z,2.98
2018-10-18T19:15:44.115Z,2.40
2018-10-18T19:18:13.315Z,2.80
2018-10-18T19:20:43.402Z,3.20
2018-10-18T19:23:20.238Z,2.90
2018-10-18T19:25:49.731Z,3.45
2018-10-18T19:28:19.755Z,2.45
2018-10-18T19:30:51.886Z,2.65
2018-10-18T19:33:21.718Z,2.62
2018-10-18T19:35:51.342Z,3.15
2018-10-18T19:38:20.585Z,3.33
2018-10-18T19:40:49.610Z,4.17
2018-10-18T19:43:20.175Z,3.02
2018-10-18T19:45:51.731Z,3.35
2018-10-18T19:48:22.494Z,4.53
2018-10-18T19:50:55.624Z,4.00
2018-10-18T19:53:28.058Z,4.20
2018-10-18T19:56:01.466Z,4.42
2018-10-18T19:58:30.730Z,5.03
2018-10-18T20:00:59.270Z,5.08
2018-10-18T20:03:27.827Z,4.92
2018-10-18T20:05:57.232Z,6.08
2018-10-18T20:08:26.093Z,5.58
2018-10-18T20:10:54.632Z,4.80
2018-10-18T20:13:23.386Z,5.03
2018-10-18T20:15:51.936Z,3.47
2018-10-18T20:18:20.536Z,3.45
2018-10-18T20:20:49.081Z,3.10
2018-10-18T20:23:17.827Z,3.00
2018-10-18T20:25:46.558Z,3.42
2018-10-18T20:28:15.180Z,3.27
2018-10-18T20:30:43.749Z,1.95
2018-10-18T20:33:12.294Z,2.17
2018-10-18T20:35:40.900Z,1.77
2018-10-18T20:38:09.419Z,1.95
2018-10-18T20:40:38.043Z,2.37
2018-10-18T20:43:06.603Z,2.10
2018-10-18T20:45:36.231Z,1.75
2018-10-18T20:48:04.935Z,1.55
2018-10-18T20:50:33.475Z,1.80
2018-10-18T20:53:02.095Z,2.12
2018-10-18T20:55:30.616Z,2.17
2018-10-18T20:57:59.154Z,1.62
2018-10-18T21:00:27.736Z,1.70
2018-10-18T21:02:56.419Z,1.60
2018-10-18T21:05:25.281Z,1.80
2018-10-18T21:07:53.807Z,1.85
2018-10-18T21:10:22.350Z,1.75
2018-10-18T21:12:50.929Z,2.15
2018-10-18T21:15:19.503Z,2.70
2018-10-18T21:17:48.058Z,1.55
2018-10-18T21:20:16.626Z,1.60
2018-10-18T21:22:45.189Z,2.92
2018-10-18T21:25:13.813Z,2.47
2018-10-18T21:27:42.372Z,2.10
2018-10-18T21:30:10.979Z,2.55
2018-10-18T21:32:39.516Z,2.67
2018-10-18T21:35:08.715Z,2.35
2018-10-18T21:37:37.359Z,2.10
2018-10-18T21:40:05.951Z,1.55
2018-10-18T21:42:34.495Z,1.90
2018-10-18T21:45:04.470Z,1.45
2018-10-18T21:47:33.566Z,1.95
2018-10-18T21:50:02.167Z,1.32
2018-10-18T21:52:30.719Z,1.47
2018-10-18T21:54:59.771Z,1.30
2018-10-18T21:57:28.310Z,1.85
2018-10-18T21:59:56.891Z,1.55
2018-10-18T22:02:25.510Z,1.98
2018-10-18T22:04:54.095Z,1.45
2018-10-18T22:07:22.659Z,1.55
2018-10-18T22:09:51.187Z,1.55
2018-10-18T22:12:19.911Z,1.40
2018-10-18T22:14:48.455Z,1.40
2018-10-18T22:17:17.096Z,1.92
2018-10-18T22:19:45.535Z,2.15
2018-10-18T22:22:14.090Z,1.87
2018-10-18T22:24:43.188Z,1.50
2018-10-18T22:27:11.807Z,1.25
2018-10-18T22:29:40.292Z,1.50
2018-10-18T22:32:08.831Z,1.20
2018-10-18T22:34:37.458Z,1.75
2018-10-18T22:37:07.085Z,1.42
2018-10-18T22:39:35.623Z,1.20
2018-10-18T22:42:04.240Z,1.27
2018-10-18T22:44:32.794Z,1.07
2018-10-18T22:47:01.384Z,1.60
2018-10-18T22:49:29.966Z,1.60
2018-10-18T22:51:58.500Z,1.22
2018-10-18T22:54:27.035Z,1.50
2018-10-18T22:56:55.751Z,1.00
2018-10-18T22:59:24.275Z,1.60
2018-10-18T23:01:52.823Z,1.60
2018-10-18T23:04:21.347Z,1.25
2018-10-18T23:06:50.350Z,1.10
2018-10-18T23:09:19.264Z,1.30
2018-10-18T23:11:47.787Z,1.40
2018-10-18T23:14:16.587Z,1.20
2018-10-18T23:16:45.120Z,1.40
2018-10-18T23:19:13.703Z,1.30
2018-10-18T23:21:42.260Z,1.70
2018-10-18T23:24:10.803Z,1.57
2018-10-18T23:26:39.360Z,0.90
2018-10-18T23:29:07.933Z,1.30
2018-10-18T23:31:36.879Z,1.10
2018-10-18T23:34:05.867Z,1.37
2018-10-18T23:36:34.663Z,1.25
2018-10-18T23:39:04.317Z,1.45
2018-10-18T23:41:32.811Z,1.50
2018-10-18T23:44:01.339Z,1.90
2018-10-18T23:46:29.881Z,1.30
2018-10-18T23:48:58.907Z,1.35
2018-10-18T23:51:27.875Z,1.42
2018-10-18T23:53:56.409Z,1.02
2018-10-18T23:56:25.024Z,1.10
2018-10-18T23:58:53.607Z,1.32
